Time;durP1;ratioP1;P1;durP2;ratioP2;P2;SDS_P1;SDS_P2;PMS_P1;PMS_P2;Temp;Humidity;BMP_temperature;BMP_pressure;BME280_temperature;BME280_humidity;BME280_pressure;Samples;Min_cycle;Max_cycle;Signal;HPM_P1;HPM_P2
2023/06/06 00:01:01;;;;;;;18.70;16.83;;;17.10;99.90;;;;;;5205877;28;20358;-69
2023/06/06 00:03:32;;;;;;;17.45;15.85;;;17.10;99.90;;;;;;5205782;28;20024;-69
2023/06/06 00:06:04;;;;;;;18.80;16.25;;;17.20;99.90;;;;;;5205846;28;20025;-70
2023/06/06 00:08:35;;;;;;;16.95;15.23;;;17.20;99.90;;;;;;5205720;28;20073;-70
2023/06/06 00:11:06;;;;;;;20.38;15.40;;;17.00;99.90;;;;;;5205557;28;20508;-70
2023/06/06 00:13:37;;;;;;;17.15;15.55;;;17.10;99.90;;;;;;5205552;28;20082;-70
2023/06/06 00:16:08;;;;;;;24.80;16.13;;;17.20;99.90;;;;;;5205542;28;20545;-70
2023/06/06 00:18:40;;;;;;;15.75;14.20;;;17.20;99.90;;;;;;5205728;28;20056;-69
2023/06/06 00:21:12;;;;;;;18.73;16.60;;;17.20;99.90;;;;;;5205652;28;20373;-70
2023/06/06 00:23:45;;;;;;;17.42;15.60;;;17.30;99.90;;;;;;5205688;28;20021;-69
2023/06/06 00:26:15;;;;;;;19.33;17.52;;;17.30;99.90;;;;;;5206732;28;20068;-69
2023/06/06 00:28:47;;;;;;;17.60;15.73;;;17.30;99.90;;;;;;5209700;28;20072;-69
2023/06/06 00:31:17;;;;;;;17.02;15.18;;;17.30;99.90;;;;;;5209608;28;20037;-70
2023/06/06 00:33:48;;;;;;;16.38;14.82;;;17.30;99.90;;;;;;5209524;28;20351;-69
2023/06/06 00:36:19;;;;;;;16.10;14.35;;;17.30;99.90;;;;;;5209366;28;20029;-69
2023/06/06 00:38:50;;;;;;;16.80;14.20;;;17.40;99.90;;;;;;5209460;28;20025;-70
2023/06/06 00:41:21;;;;;;;16.48;14.70;;;17.40;99.90;;;;;;5208968;28;20079;-70
2023/06/06 00:43:52;;;;;;;17.40;15.63;;;17.40;99.90;;;;;;5209388;28;20029;-70
2023/06/06 00:46:24;;;;;;;17.77;16.02;;;17.40;99.90;;;;;;5209263;28;20025;-69
2023/06/06 00:48:55;;;;;;;15.30;13.82;;;17.40;99.90;;;;;;5209298;28;20030;-70
2023/06/06 00:51:26;;;;;;;17.98;15.88;;;17.40;99.90;;;;;;5209283;28;20026;-69
2023/06/06 00:53:59;;;;;;;18.30;16.27;;;17.50;99.90;;;;;;5209096;28;20065;-70
2023/06/06 00:56:31;;;;;;;17.40;15.55;;;17.40;99.90;;;;;;5209006;28;20104;-69
2023/06/06 00:59:03;;;;;;;18.33;16.45;;;17.40;99.90;;;;;;5209036;28;20021;-70
2023/06/06 01:01:36;;;;;;;17.67;16.10;;;17.40;99.90;;;;;;5208919;28;20370;-69
2023/06/06 01:04:08;;;;;;;18.63;16.52;;;17.50;99.90;;;;;;5208979;28;20075;-69
2023/06/06 01:06:39;;;;;;;19.63;17.67;;;17.50;99.90;;;;;;5191145;28;20033;-70
2023/06/06 01:09:13;;;;;;;19.30;17.50;;;17.50;99.90;;;;;;5208927;28;20036;-70
2023/06/06 01:12:29;;;;;;;18.67;16.67;;;17.50;99.90;;;;;;5190760;28;20034;-70
2023/06/06 01:15:07;;;;;;;22.38;16.77;;;17.60;99.90;;;;;;5205073;28;20099;-70
2023/06/06 01:17:41;;;;;;;18.95;16.90;;;17.50;99.90;;;;;;5208921;28;20030;-68
2023/06/06 01:20:14;;;;;;;18.05;16.15;;;17.50;99.90;;;;;;5208882;28;20036;-70
2023/06/06 01:22:46;;;;;;;19.63;17.67;;;17.60;99.90;;;;;;5208953;28;20421;-69
2023/06/06 01:25:19;;;;;;;20.55;16.17;;;17.70;99.90;;;;;;5208847;28;20014;-69
2023/06/06 01:27:54;;;;;;;18.63;17.10;;;17.60;99.90;;;;;;5208726;28;20029;-69
2023/06/06 01:30:27;;;;;;;17.67;15.93;;;17.60;99.90;;;;;;5208753;28;20460;-70
2023/06/06 01:33:26;;;;;;;18.83;16.95;;;17.60;99.90;;;;;;5208465;28;20040;-70
2023/06/06 01:36:14;;;;;;;18.83;17.23;;;17.60;99.90;;;;;;5208383;28;20022;-70
2023/06/06 01:38:49;;;;;;;19.20;17.30;;;17.60;99.90;;;;;;5208038;28;20519;-68
2023/06/06 01:41:22;;;;;;;19.25;17.55;;;17.60;99.90;;;;;;5208003;28;20021;-70
2023/06/06 01:43:56;;;;;;;18.70;15.65;;;17.60;99.90;;;;;;5208356;28;20025;-70
2023/06/06 01:46:28;;;;;;;19.40;17.45;;;17.70;99.90;;;;;;5208173;28;20022;-70
2023/06/06 01:48:59;;;;;;;17.75;15.32;;;17.70;99.90;;;;;;5208222;28;20029;-70
2023/06/06 01:51:30;;;;;;;19.77;17.85;;;17.70;99.90;;;;;;5208169;28;20082;-69
2023/06/06 01:54:01;;;;;;;20.15;18.27;;;17.70;99.90;;;;;;5190222;28;20079;-69
2023/06/06 01:56:33;;;;;;;17.75;16.23;;;17.80;99.90;;;;;;5208027;28;20083;-69
2023/06/06 01:59:04;;;;;;;16.52;14.68;;;17.80;99.90;;;;;;5208088;28;20064;-70
2023/06/06 02:01:35;;;;;;;17.80;15.27;;;17.70;99.90;;;;;;5208039;28;20053;-70
2023/06/06 02:04:06;;;;;;;17.75;16.02;;;17.80;99.90;;;;;;5207888;28;20029;-69
2023/06/06 02:06:37;;;;;;;21.80;17.85;;;17.70;99.90;;;;;;5207768;28;20318;-69
2023/06/06 02:09:07;;;;;;;18.15;15.40;;;17.80;99.90;;;;;;5207790;28;20040;-68
2023/06/06 02:11:38;;;;;;;18.20;15.95;;;17.70;99.90;;;;;;5207582;28;20026;-70
2023/06/06 02:14:09;;;;;;;21.55;18.17;;;17.80;99.90;;;;;;5207751;28;20381;-69
2023/06/06 02:16:40;;;;;;;19.95;18.15;;;17.80;99.90;;;;;;5207485;28;20048;-70
2023/06/06 02:19:12;;;;;;;20.17;18.38;;;17.80;99.90;;;;;;5207529;28;20100;-70
2023/06/06 02:21:42;;;;;;;19.05;17.25;;;17.90;99.90;;;;;;5207466;28;20022;-70
2023/06/06 02:24:13;;;;;;;17.20;15.65;;;17.80;99.90;;;;;;5207572;28;20040;-70
2023/06/06 02:26:44;;;;;;;20.05;18.23;;;17.80;99.90;;;;;;5207449;28;20026;-69
2023/06/06 02:29:15;;;;;;;19.10;17.15;;;17.90;99.90;;;;;;5207369;28;20034;-69
2023/06/06 02:31:46;;;;;;;20.73;18.85;;;17.80;99.90;;;;;;5207181;28;20071;-69
2023/06/06 02:34:17;;;;;;;21.70;19.50;;;17.80;99.90;;;;;;5207317;28;20059;-70
2023/06/06 02:36:49;;;;;;;24.05;18.80;;;17.90;99.90;;;;;;5207155;28;20021;-69
2023/06/06 02:39:21;;;;;;;20.02;18.23;;;17.80;99.90;;;;;;5207513;28;20113;-69
2023/06/06 02:41:52;;;;;;;21.70;17.80;;;17.80;99.90;;;;;;5189360;28;20050;-70
2023/06/06 02:44:23;;;;;;;19.10;17.23;;;17.80;99.90;;;;;;5189628;28;20025;-69
2023/06/06 02:46:54;;;;;;;19.15;17.42;;;17.90;99.90;;;;;;5207089;28;20010;-70
2023/06/06 02:49:27;;;;;;;17.83;16.10;;;17.90;99.90;;;;;;5206098;28;20029;-70
2023/06/06 02:51:58;;;;;;;17.42;15.80;;;17.90;99.90;;;;;;5206887;28;20040;-70
2023/06/06 02:54:28;;;;;;;17.58;15.77;;;17.80;99.90;;;;;;5189178;28;20029;-70
2023/06/06 02:57:00;;;;;;;17.77;16.30;;;17.80;99.90;;;;;;5206786;28;20112;-69
2023/06/06 02:59:31;;;;;;;17.52;15.95;;;17.80;99.90;;;;;;5206763;28;20029;-70
2023/06/06 03:02:03;;;;;;;16.55;15.23;;;17.90;99.90;;;;;;5206759;28;20032;-70
2023/06/06 03:04:34;;;;;;;16.60;14.98;;;17.80;99.90;;;;;;5206748;28;20025;-70
2023/06/06 03:07:05;;;;;;;19.05;17.15;;;17.90;99.90;;;;;;5206722;28;20036;-69
2023/06/06 03:09:36;;;;;;;19.95;14.98;;;17.90;99.90;;;;;;5206582;28;20025;-70
2023/06/06 03:12:08;;;;;;;17.60;15.98;;;17.90;99.90;;;;;;5206401;28;20493;-70
2023/06/06 03:14:38;;;;;;;17.35;15.32;;;17.90;99.90;;;;;;5206548;28;20025;-69
2023/06/06 03:17:11;;;;;;;16.05;14.55;;;17.90;99.90;;;;;;5206191;28;20107;-70
2023/06/06 03:19:42;;;;;;;19.05;16.42;;;17.90;99.90;;;;;;5206451;28;20028;-69
2023/06/06 03:22:13;;;;;;;17.77;16.08;;;17.90;99.90;;;;;;5206318;28;20036;-69
2023/06/06 03:24:49;;;;;;;18.05;16.33;;;17.90;99.90;;;;;;5206298;28;20029;-69
2023/06/06 03:27:20;;;;;;;19.15;17.38;;;17.90;99.90;;;;;;5206378;28;20469;-69
2023/06/06 03:29:52;;;;;;;16.70;14.98;;;18.00;99.90;;;;;;5206134;28;20026;-70
2023/06/06 03:32:23;;;;;;;19.10;17.30;;;18.00;99.90;;;;;;5206074;28;20041;-70
2023/06/06 03:34:54;;;;;;;19.15;17.38;;;18.00;99.90;;;;;;5205982;28;20028;-70
2023/06/06 03:37:24;;;;;;;16.38;14.63;;;18.00;99.90;;;;;;5206162;28;20036;-69
2023/06/06 03:39:55;;;;;;;16.83;13.40;;;18.00;99.90;;;;;;5206234;28;20033;-70
2023/06/06 03:42:26;;;;;;;19.35;16.13;;;18.00;99.90;;;;;;5205937;28;20049;-70
2023/06/06 03:44:57;;;;;;;15.43;14.15;;;18.00;99.90;;;;;;5206093;28;20026;-70
2023/06/06 03:47:28;;;;;;;16.95;15.35;;;18.10;99.90;;;;;;5206242;28;20029;-69
2023/06/06 03:49:59;;;;;;;16.95;15.23;;;18.10;99.90;;;;;;5206119;28;20013;-69
2023/06/06 03:52:30;;;;;;;19.05;16.95;;;18.10;99.90;;;;;;5206035;28;20072;-70
2023/06/06 03:55:01;;;;;;;16.67;14.93;;;18.10;99.90;;;;;;5205988;28;20076;-70
2023/06/06 03:57:32;;;;;;;18.38;16.80;;;18.20;99.90;;;;;;5205975;28;20057;-70
2023/06/06 04:00:13;;;;;;;18.50;16.90;;;18.20;99.90;;;;;;5205659;28;20362;-70
2023/06/06 04:02:48;;;;;;;18.70;17.13;;;18.10;99.90;;;;;;5205968;28;20033;-70
2023/06/06 04:05:19;;;;;;;18.92;17.25;;;18.20;99.90;;;;;;5205848;28;20048;-70
2023/06/06 04:07:50;;;;;;;18.67;16.98;;;18.30;99.90;;;;;;5205926;28;20025;-70
2023/06/06 04:10:21;;;;;;;19.40;17.20;;;18.20;99.90;;;;;;5205712;28;20029;-70
2023/06/06 04:12:52;;;;;;;21.08;18.90;;;18.30;99.90;;;;;;5205510;28;20048;-70
2023/06/06 04:15:23;;;;;;;21.88;20.23;;;18.40;99.90;;;;;;5205612;28;20072;-70
2023/06/06 04:17:54;;;;;;;18.38;16.75;;;18.40;99.90;;;;;;5205633;28;20045;-69
2023/06/06 04:20:26;;;;;;;21.05;19.17;;;18.50;99.90;;;;;;5205793;28;20025;-70
2023/06/06 04:22:56;;;;;;;22.20;20.08;;;18.50;99.90;;;;;;5205641;28;20078;-70
2023/06/06 04:25:27;;;;;;;20.48;18.38;;;18.50;99.90;;;;;;5205577;28;20152;-70
2023/06/06 04:28:00;;;;;;;20.65;18.67;;;18.60;99.90;;;;;;5205494;28;20365;-70
2023/06/06 04:30:32;;;;;;;21.35;19.23;;;18.60;99.90;;;;;;5205604;28;20029;-70
2023/06/06 04:33:04;;;;;;;20.70;18.90;;;18.60;99.90;;;;;;5205404;28;20068;-70
2023/06/06 04:35:36;;;;;;;18.38;16.85;;;18.60;99.90;;;;;;5205420;28;20021;-70
2023/06/06 04:38:07;;;;;;;18.77;16.83;;;18.60;99.90;;;;;;5205356;28;20485;-70
2023/06/06 04:40:40;;;;;;;20.60;18.83;;;18.60;99.90;;;;;;5205203;28;20504;-69
2023/06/06 04:43:11;;;;;;;17.10;15.60;;;18.70;99.90;;;;;;5205144;28;20056;-70
2023/06/06 04:45:45;;;;;;;19.33;17.63;;;18.60;99.90;;;;;;5205224;28;20018;-69
2023/06/06 04:48:18;;;;;;;17.42;15.77;;;18.60;99.90;;;;;;5205280;28;20421;-69
2023/06/06 04:50:52;;;;;;;16.48;15.10;;;18.70;99.90;;;;;;5205344;28;20017;-70
2023/06/06 04:53:23;;;;;;;16.88;15.23;;;18.80;99.90;;;;;;5205305;28;20041;-69
2023/06/06 04:55:55;;;;;;;16.33;13.93;;;18.70;99.90;;;;;;5187453;28;20473;-68
2023/06/06 04:58:28;;;;;;;17.27;15.88;;;18.80;99.90;;;;;;5205343;28;20013;-69
2023/06/06 05:00:59;;;;;;;18.23;14.25;;;18.80;99.90;;;;;;5205430;28;20338;-69
2023/06/06 05:03:31;;;;;;;17.83;16.40;;;18.90;99.90;;;;;;5205667;28;20025;-69
2023/06/06 05:06:02;;;;;;;17.88;16.23;;;19.00;99.90;;;;;;5205175;28;20355;-70
2023/06/06 05:08:40;;;;;;;16.23;14.73;;;19.00;99.90;;;;;;5205380;28;20032;-70
2023/06/06 05:11:11;;;;;;;17.60;15.90;;;19.00;99.90;;;;;;5205019;28;20121;-70
2023/06/06 05:13:42;;;;;;;15.68;14.07;;;19.10;99.90;;;;;;5208202;28;20099;-69
2023/06/06 05:16:13;;;;;;;18.30;16.60;;;19.20;99.90;;;;;;5190953;28;20466;-69
2023/06/06 05:18:44;;;;;;;17.67;16.25;;;19.40;99.90;;;;;;5208764;28;20469;-70
2023/06/06 05:21:15;;;;;;;19.25;17.00;;;19.40;99.90;;;;;;5208662;28;20024;-70
2023/06/06 05:23:46;;;;;;;20.40;18.73;;;19.50;99.90;;;;;;5208683;28;20044;-70
2023/06/06 05:26:17;;;;;;;19.30;17.83;;;19.50;99.90;;;;;;5208855;28;20021;-70
2023/06/06 05:28:48;;;;;;;19.38;17.30;;;19.50;99.90;;;;;;5208700;28;20373;-69
2023/06/06 05:31:21;;;;;;;21.15;19.40;;;19.60;99.90;;;;;;5208571;28;20021;-70
2023/06/06 05:33:52;;;;;;;20.25;18.33;;;19.40;99.90;;;;;;5208450;28;20120;-69
2023/06/06 05:36:23;;;;;;;19.17;17.45;;;19.60;99.90;;;;;;5208316;28;20421;-69
2023/06/06 05:38:54;;;;;;;19.48;17.38;;;19.60;99.90;;;;;;5208421;28;20057;-69
2023/06/06 05:41:26;;;;;;;20.00;16.58;;;19.60;99.90;;;;;;5207997;28;20029;-70
2023/06/06 05:43:57;;;;;;;15.50;14.07;;;19.70;99.90;;;;;;5208277;28;20044;-69
2023/06/06 05:46:28;;;;;;;16.25;14.88;;;19.80;99.90;;;;;;5208191;28;20033;-70
2023/06/06 05:48:59;;;;;;;17.08;15.60;;;19.90;99.90;;;;;;5208111;28;20018;-69
2023/06/06 05:51:30;;;;;;;16.58;15.05;;;19.90;99.90;;;;;;5208129;28;20141;-70
2023/06/06 05:54:01;;;;;;;20.45;18.60;;;19.80;99.90;;;;;;5207960;28;20561;-70
2023/06/06 05:56:32;;;;;;;21.23;19.55;;;20.00;99.90;;;;;;5207830;28;20022;-69
2023/06/06 05:59:03;;;;;;;22.30;20.52;;;20.00;99.90;;;;;;5207907;28;20469;-70
2023/06/06 06:01:33;;;;;;;21.27;19.50;;;19.90;99.90;;;;;;5207865;28;20025;-69
2023/06/06 06:04:05;;;;;;;21.77;20.08;;;20.00;99.90;;;;;;5207959;28;20060;-70
2023/06/06 06:06:37;;;;;;;21.33;19.70;;;20.00;99.90;;;;;;5207831;28;20021;-69
2023/06/06 06:09:08;;;;;;;21.90;20.10;;;20.00;99.90;;;;;;5207653;28;20068;-70
2023/06/06 06:11:40;;;;;;;20.90;19.02;;;20.10;99.90;;;;;;5207562;28;20103;-70
2023/06/06 06:14:11;;;;;;;22.80;20.67;;;20.10;99.90;;;;;;5207520;28;20073;-70
2023/06/06 06:16:42;;;;;;;22.48;20.75;;;20.00;99.90;;;;;;5207685;28;20056;-69
2023/06/06 06:19:12;;;;;;;23.88;22.15;;;20.10;99.90;;;;;;5207908;28;20025;-69
2023/06/06 06:21:43;;;;;;;21.25;19.67;;;20.30;99.90;;;;;;5208014;28;20022;-69
2023/06/06 06:24:14;;;;;;;23.70;21.40;;;20.40;99.90;;;;;;5189791;28;20100;-70
2023/06/06 06:26:46;;;;;;;21.30;19.60;;;20.40;99.90;;;;;;5207436;28;20056;-70
2023/06/06 06:29:16;;;;;;;22.75;21.25;;;20.60;99.90;;;;;;5207546;28;20065;-70
2023/06/06 06:31:47;;;;;;;24.40;22.60;;;20.70;99.90;;;;;;5207391;28;20053;-69
2023/06/06 06:34:18;;;;;;;22.77;20.88;;;20.90;99.90;;;;;;5207326;28;20481;-70
2023/06/06 06:36:49;;;;;;;23.33;21.00;;;20.70;99.90;;;;;;5207239;28;20025;-69
2023/06/06 06:39:20;;;;;;;21.48;19.67;;;20.60;99.90;;;;;;5207177;28;20052;-69
2023/06/06 06:41:52;;;;;;;21.25;19.63;;;20.70;99.90;;;;;;5207050;28;20049;-70
2023/06/06 06:44:23;;;;;;;23.75;21.95;;;21.00;99.90;;;;;;5207084;28;20028;-70
2023/06/06 06:46:54;;;;;;;24.92;22.90;;;20.90;99.90;;;;;;5207130;28;20466;-70
2023/06/06 06:49:26;;;;;;;22.42;20.52;;;20.80;99.90;;;;;;5206957;28;20481;-69
2023/06/06 06:51:57;;;;;;;23.77;21.55;;;20.80;99.90;;;;;;5206921;28;20374;-70
2023/06/06 06:54:28;;;;;;;21.60;20.00;;;21.00;99.90;;;;;;5206828;28;20083;-70
2023/06/06 06:56:59;;;;;;;22.00;20.48;;;21.00;99.90;;;;;;5207023;28;20029;-70
2023/06/06 06:59:31;;;;;;;23.10;21.35;;;20.90;99.90;;;;;;5206731;28;20064;-70
2023/06/06 07:02:02;;;;;;;24.48;22.38;;;21.00;99.90;;;;;;5206722;28;20028;-70
2023/06/06 07:04:33;;;;;;;24.92;23.17;;;21.00;99.90;;;;;;5206718;28;20115;-70
2023/06/06 07:07:04;;;;;;;22.73;21.13;;;20.90;99.90;;;;;;5206712;28;20484;-70
2023/06/06 07:09:35;;;;;;;23.23;21.42;;;21.00;99.90;;;;;;5206400;28;20029;-70
2023/06/06 07:12:07;;;;;;;23.38;21.65;;;21.00;99.90;;;;;;5206369;28;20034;-70
2023/06/06 07:14:39;;;;;;;21.73;20.13;;;21.10;99.90;;;;;;5206453;28;20029;-70
2023/06/06 07:17:10;;;;;;;23.83;21.58;;;21.10;99.90;;;;;;5206331;28;20428;-69
2023/06/06 07:19:42;;;;;;;24.88;22.83;;;21.00;99.90;;;;;;5206302;28;20040;-69
2023/06/06 07:22:14;;;;;;;24.30;22.50;;;21.00;99.90;;;;;;5188621;28;20021;-68
2023/06/06 07:24:45;;;;;;;21.88;19.98;;;21.00;99.90;;;;;;5206246;28;20033;-70
2023/06/06 07:27:18;;;;;;;24.77;22.67;;;21.10;99.90;;;;;;5206382;28;20018;-70
2023/06/06 07:29:49;;;;;;;25.38;23.15;;;21.20;99.90;;;;;;5206241;28;20031;-70
2023/06/06 07:32:20;;;;;;;26.27;24.15;;;21.70;99.90;;;;;;5206206;28;20029;-69
2023/06/06 07:34:51;;;;;;;27.00;25.00;;;21.60;99.90;;;;;;5205674;28;20110;-70
2023/06/06 07:37:23;;;;;;;27.65;25.80;;;21.60;99.90;;;;;;5206279;28;20057;-69
2023/06/06 07:39:54;;;;;;;26.75;24.75;;;21.80;99.90;;;;;;5206379;28;20048;-69
2023/06/06 07:42:25;;;;;;;26.98;25.10;;;22.00;99.90;;;;;;5206006;28;20134;-70
2023/06/06 07:44:56;;;;;;;22.27;20.65;;;22.00;99.90;;;;;;5206146;28;20074;-70
2023/06/06 07:47:27;;;;;;;23.40;21.52;;;22.00;99.90;;;;;;5206098;28;20021;-69
2023/06/06 07:49:58;;;;;;;24.83;22.63;;;22.00;99.90;;;;;;5206006;28;20029;-70
2023/06/06 07:52:32;;;;;;;21.38;19.73;;;22.00;99.90;;;;;;5205776;28;20049;-69
2023/06/06 07:55:05;;;;;;;22.25;20.40;;;22.30;99.90;;;;;;5205808;28;20465;-70
2023/06/06 07:57:36;;;;;;;21.77;20.10;;;22.30;99.90;;;;;;5205858;28;20029;-70
2023/06/06 08:00:11;;;;;;;22.27;20.58;;;22.10;99.90;;;;;;5205891;28;20014;-70
2023/06/06 08:02:43;;;;;;;27.10;24.75;;;22.10;99.90;;;;;;5205843;28;20164;-69
2023/06/06 08:05:14;;;;;;;25.58;23.48;;;22.00;99.90;;;;;;5205664;28;20092;-69
2023/06/06 08:07:45;;;;;;;23.92;22.25;;;22.20;99.90;;;;;;5205865;28;20028;-68
2023/06/06 08:10:16;;;;;;;25.35;23.50;;;22.30;99.90;;;;;;5205733;28;20087;-70
2023/06/06 08:12:46;;;;;;;23.77;21.98;;;22.40;99.90;;;;;;5205463;28;20103;-69
2023/06/06 08:15:17;;;;;;;22.10;20.20;;;22.60;99.90;;;;;;5205619;28;20040;-70
2023/06/06 08:17:48;;;;;;;21.35;19.95;;;22.70;99.90;;;;;;5205565;28;20060;-69
2023/06/06 08:20:19;;;;;;;20.10;18.60;;;22.90;99.90;;;;;;5205691;28;20452;-69
2023/06/06 08:22:51;;;;;;;20.58;18.95;;;22.80;99.90;;;;;;5205511;28;20032;-70
2023/06/06 08:25:22;;;;;;;21.35;19.95;;;22.60;99.90;;;;;;5205547;28;20474;-70
2023/06/06 08:27:53;;;;;;;22.67;20.90;;;22.70;99.90;;;;;;5205507;28;20056;-69
2023/06/06 08:30:24;;;;;;;24.30;21.95;;;22.70;99.90;;;;;;5205516;28;20034;-69
2023/06/06 08:32:55;;;;;;;22.02;20.42;;;23.10;99.90;;;;;;5205394;28;20025;-70
2023/06/06 08:35:26;;;;;;;17.65;16.10;;;23.00;99.90;;;;;;5205361;28;20104;-70
2023/06/06 08:37:56;;;;;;;17.92;16.50;;;23.00;99.90;;;;;;5205433;28;20014;-70
2023/06/06 08:40:27;;;;;;;16.20;14.93;;;23.10;99.90;;;;;;5205300;28;20040;-69
2023/06/06 08:42:59;;;;;;;15.27;13.93;;;23.10;99.90;;;;;;5205097;28;20041;-70
2023/06/06 08:45:32;;;;;;;16.63;15.13;;;23.10;99.90;;;;;;5205350;28;20029;-69
2023/06/06 08:48:05;;;;;;;14.80;13.38;;;23.30;99.90;;;;;;5207818;28;20013;-70
2023/06/06 08:50:38;;;;;;;14.60;13.35;;;23.40;99.90;;;;;;5209375;28;20025;-70
2023/06/06 08:53:10;;;;;;;16.00;14.27;;;23.50;99.90;;;;;;5209207;28;20038;-69
2023/06/06 08:55:41;;;;;;;13.10;11.90;;;23.40;99.90;;;;;;5209124;28;20032;-70
2023/06/06 08:58:13;;;;;;;13.40;11.68;;;23.30;99.90;;;;;;5209342;28;20018;-70
2023/06/06 09:00:43;;;;;;;14.20;13.18;;;23.40;99.90;;;;;;5209208;28;20022;-70
2023/06/06 09:03:16;;;;;;;12.85;11.65;;;23.20;99.90;;;;;;5209137;28;20025;-70
2023/06/06 09:05:49;;;;;;;13.52;12.05;;;23.50;99.90;;;;;;5209102;28;20429;-69
2023/06/06 09:08:21;;;;;;;16.00;14.55;;;23.50;99.90;;;;;;5209085;28;20025;-70
2023/06/06 09:10:52;;;;;;;14.75;13.57;;;23.80;99.90;;;;;;5208857;28;20151;-70
2023/06/06 09:13:22;;;;;;;15.15;13.90;;;23.80;99.90;;;;;;5191134;28;20136;-70
2023/06/06 09:15:54;;;;;;;15.00;13.75;;;23.60;99.90;;;;;;5208761;28;20048;-70
2023/06/06 09:18:28;;;;;;;16.42;14.90;;;23.50;99.90;;;;;;5208833;28;20433;-69
2023/06/06 09:20:59;;;;;;;15.65;14.30;;;23.90;99.90;;;;;;5208914;28;20095;-69
2023/06/06 09:23:31;;;;;;;14.73;13.35;;;23.60;99.90;;;;;;5208793;28;20025;-70
2023/06/06 09:26:02;;;;;;;14.02;12.73;;;23.60;99.90;;;;;;5208706;28;20155;-69
2023/06/06 09:28:40;;;;;;;15.85;13.98;;;23.70;99.90;;;;;;5208614;28;20045;-70
2023/06/06 09:31:25;;;;;;;14.35;13.20;;;23.80;99.90;;;;;;5208691;28;20044;-70
2023/06/06 09:33:58;;;;;;;14.07;12.98;;;23.90;99.90;;;;;;5208503;28;20045;-70
2023/06/06 09:36:29;;;;;;;15.55;14.38;;;23.80;99.90;;;;;;5208406;28;20021;-68
2023/06/06 09:39:08;;;;;;;15.45;14.35;;;23.90;99.90;;;;;;5208331;28;20021;-70
2023/06/06 09:41:46;;;;;;;17.40;15.85;;;24.00;99.90;;;;;;5208184;28;20068;-69
2023/06/06 09:44:25;;;;;;;16.15;14.93;;;23.80;99.90;;;;;;5208327;28;20143;-70
2023/06/06 09:47:01;;;;;;;16.73;15.30;;;23.90;99.90;;;;;;5208217;28;20022;-69
2023/06/06 09:49:36;;;;;;;15.77;14.23;;;24.20;99.90;;;;;;5208202;28;20040;-69
2023/06/06 09:52:14;;;;;;;18.05;16.63;;;23.80;99.90;;;;;;5208117;28;20021;-70
2023/06/06 09:54:45;;;;;;;18.67;17.08;;;24.20;99.90;;;;;;5208178;28;20029;-69
2023/06/06 09:57:17;;;;;;;17.75;16.13;;;24.20;99.90;;;;;;5207980;28;20021;-70
2023/06/06 09:59:49;;;;;;;18.15;16.75;;;24.10;99.90;;;;;;5207691;28;20043;-70
2023/06/06 10:02:22;;;;;;;20.50;18.90;;;23.60;99.90;;;;;;5207978;28;20787;-69
2023/06/06 10:04:54;;;;;;;17.70;16.23;;;24.10;99.90;;;;;;5208003;28;20013;-70
2023/06/06 10:07:26;;;;;;;18.92;17.40;;;24.10;99.90;;;;;;5208021;28;20033;-70
2023/06/06 10:09:58;;;;;;;19.13;17.42;;;24.30;99.90;;;;;;5208039;28;20477;-70
2023/06/06 10:12:30;;;;;;;18.70;17.20;;;24.40;99.90;;;;;;5207600;28;20040;-70
2023/06/06 10:15:02;;;;;;;17.48;16.10;;;24.10;99.90;;;;;;5207741;28;20026;-70
2023/06/06 10:17:38;;;;;;;18.95;17.52;;;24.20;99.90;;;;;;5207787;28;20017;-69
2023/06/06 10:20:11;;;;;;;16.65;15.45;;;24.20;99.90;;;;;;5207726;28;20026;-69
2023/06/06 10:22:42;;;;;;;18.88;17.40;;;24.30;99.90;;;;;;5207506;28;20013;-69
2023/06/06 10:25:16;;;;;;;17.92;16.38;;;24.30;99.90;;;;;;5207463;28;20473;-69
2023/06/06 10:28:12;;;;;;;16.55;15.20;;;24.60;99.90;;;;;;5207422;28;20537;-69
2023/06/06 10:30:43;;;;;;;19.48;17.73;;;24.30;99.90;;;;;;5189564;28;20024;-69
2023/06/06 10:33:27;;;;;;;17.92;16.58;;;24.40;99.90;;;;;;5207149;28;20037;-69
2023/06/06 10:36:02;;;;;;;18.80;16.60;;;24.30;99.90;;;;;;5207176;28;20025;-69
2023/06/06 10:38:34;;;;;;;19.02;17.42;;;24.40;99.90;;;;;;5207328;28;20026;-70
2023/06/06 10:41:18;;;;;;;17.70;16.25;;;24.30;99.90;;;;;;5207079;28;20033;-69
2023/06/06 10:43:50;;;;;;;19.02;16.73;;;24.20;99.90;;;;;;5207103;28;20045;-69
2023/06/06 10:46:21;;;;;;;18.98;17.38;;;24.50;99.90;;;;;;5207086;28;20029;-70
2023/06/06 10:48:55;;;;;;;18.38;17.00;;;24.50;99.90;;;;;;5207004;28;20029;-70
2023/06/06 10:51:32;;;;;;;16.90;15.38;;;24.40;99.90;;;;;;5206959;28;20040;-69
2023/06/06 10:54:18;;;;;;;16.13;14.73;;;24.50;99.90;;;;;;5206752;28;20390;-69
2023/06/06 10:56:54;;;;;;;17.98;16.40;;;24.30;99.90;;;;;;5206817;28;20053;-70
2023/06/06 10:59:27;;;;;;;16.88;15.57;;;24.50;99.90;;;;;;5206802;28;20021;-70
2023/06/06 11:01:58;;;;;;;15.73;14.23;;;24.60;99.90;;;;;;5206770;28;20096;-69
2023/06/06 11:04:30;;;;;;;16.45;15.07;;;24.70;99.90;;;;;;5206766;28;20642;-70
2023/06/06 11:07:14;;;;;;;17.65;16.25;;;24.60;99.90;;;;;;5206638;28;20025;-70
2023/06/06 11:09:48;;;;;;;17.35;15.05;;;24.60;99.90;;;;;;5205838;28;20088;-70
2023/06/06 11:12:19;;;;;;;16.35;15.15;;;24.40;99.90;;;;;;5188760;28;20039;-69
2023/06/06 11:15:11;;;;;;;16.38;14.75;;;24.40;99.90;;;;;;5206621;28;20128;-70
2023/06/06 11:17:43;;;;;;;14.77;13.57;;;24.70;99.90;;;;;;5206621;28;20068;-70
2023/06/06 11:20:18;;;;;;;15.23;14.02;;;24.90;99.90;;;;;;5206742;28;20096;-70
2023/06/06 11:23:01;;;;;;;15.07;13.98;;;24.70;99.90;;;;;;5206694;28;20362;-70
2023/06/06 11:25:37;;;;;;;15.65;14.45;;;24.80;99.90;;;;;;5206546;28;20025;-70
2023/06/06 11:28:09;;;;;;;15.48;13.90;;;25.00;99.90;;;;;;5206533;28;20023;-70
2023/06/06 11:30:41;;;;;;;14.93;13.43;;;24.70;99.90;;;;;;5206486;28;20433;-69
2023/06/06 11:33:11;;;;;;;14.93;13.38;;;24.30;99.90;;;;;;5206247;28;20126;-70
2023/06/06 11:35:42;;;;;;;15.35;13.98;;;24.70;99.90;;;;;;5206247;28;20107;-69
2023/06/06 11:38:13;;;;;;;16.48;14.77;;;24.80;99.90;;;;;;5206369;28;20029;-70
2023/06/06 11:40:44;;;;;;;14.98;13.63;;;24.70;99.90;;;;;;5205964;28;20504;-69
2023/06/06 11:43:15;;;;;;;14.20;13.20;;;24.80;99.90;;;;;;5205885;28;20069;-70
2023/06/06 11:46:04;;;;;;;14.45;13.10;;;24.30;99.90;;;;;;5188328;28;20102;-70
2023/06/06 11:48:35;;;;;;;16.60;15.23;;;24.30;99.90;;;;;;5206046;28;20057;-69
2023/06/06 11:51:15;;;;;;;17.67;16.13;;;24.80;99.90;;;;;;5205957;28;20033;-70
2023/06/06 11:53:46;;;;;;;15.73;14.30;;;24.80;99.90;;;;;;5205795;28;20034;-69
2023/06/06 11:56:18;;;;;;;15.40;13.95;;;24.50;99.90;;;;;;5205950;28;20373;-70
2023/06/06 11:58:48;;;;;;;17.98;16.38;;;24.70;99.90;;;;;;5188210;28;20028;-69
2023/06/06 12:01:19;;;;;;;16.33;15.05;;;24.70;99.90;;;;;;5205761;28;20382;-69
2023/06/06 12:03:51;;;;;;;17.80;16.40;;;24.70;99.90;;;;;;5205883;28;20031;-70
2023/06/06 12:06:22;;;;;;;17.20;15.90;;;24.50;99.90;;;;;;5205893;28;20028;-70
2023/06/06 12:08:53;;;;;;;17.08;15.48;;;24.50;99.90;;;;;;5205657;28;20022;-70
2023/06/06 12:11:26;;;;;;;16.65;15.10;;;24.20;99.90;;;;;;5205567;28;20363;-70
2023/06/06 12:13:57;;;;;;;18.40;17.13;;;24.60;99.90;;;;;;5205570;28;20044;-70
2023/06/06 12:16:29;;;;;;;17.92;16.50;;;24.90;99.90;;;;;;5205411;28;20021;-70
2023/06/06 12:18:59;;;;;;;17.33;15.77;;;24.90;99.90;;;;;;5205819;28;20025;-70
2023/06/06 12:21:50;;;;;;;18.00;16.52;;;24.80;99.90;;;;;;5207151;28;20381;-69
2023/06/06 12:24:23;;;;;;;16.45;14.90;;;24.70;99.90;;;;;;5209890;28;20026;-69
2023/06/06 12:26:59;;;;;;;16.63;15.27;;;25.00;99.90;;;;;;5209810;28;20036;-70
2023/06/06 12:29:33;;;;;;;18.08;16.27;;;24.60;99.90;;;;;;5209863;28;20022;-70
2023/06/06 12:32:21;;;;;;;16.80;15.70;;;25.00;99.90;;;;;;5209896;28;20017;-69
2023/06/06 12:35:05;;;;;;;16.10;14.82;;;24.60;99.90;;;;;;5209874;28;20483;-69
2023/06/06 12:37:36;;;;;;;16.45;14.77;;;24.60;99.90;;;;;;5209889;28;20022;-69
2023/06/06 12:40:18;;;;;;;12.77;11.65;;;24.60;99.90;;;;;;5209657;28;20025;-69
2023/06/06 12:42:52;;;;;;;15.40;14.20;;;24.60;99.90;;;;;;5209289;28;20049;-70
2023/06/06 12:45:24;;;;;;;18.33;16.92;;;24.90;99.90;;;;;;5209560;28;20030;-69
2023/06/06 12:47:57;;;;;;;15.95;14.75;;;25.20;99.90;;;;;;5209433;28;20035;-69
2023/06/06 12:50:27;;;;;;;14.45;13.05;;;25.00;99.90;;;;;;5209430;28;20029;-70
2023/06/06 12:52:58;;;;;;;14.52;13.32;;;24.80;99.90;;;;;;5209305;28;20370;-69
2023/06/06 12:55:29;;;;;;;13.88;12.90;;;24.70;99.90;;;;;;5209077;28;20026;-69